sensor_id;sensor_type;location;lat;lon;timestamp;pressure;altitude;pressure_sealevel;temperature
64394;BMP280;50712;49.506;10.400;2023-03-23T00:00:24;97436.00;;;14.34
64394;BMP280;50712;49.506;10.400;2023-03-23T00:00:55;97437.25;;;14.33
64394;BMP280;50712;49.506;10.400;2023-03-23T00:01:25;97433.28;;;14.34
64394;BMP280;50712;49.506;10.400;2023-03-23T00:01:59;97429.78;;;14.34
64394;BMP280;50712;49.506;10.400;2023-03-23T00:02:30;97435.25;;;14.34
64394;BMP280;50712;49.506;10.400;2023-03-23T00:03:05;97431.28;;;14.35
64394;BMP280;50712;49.506;10.400;2023-03-23T00:03:39;97436.00;;;14.34
64394;BMP280;50712;49.506;10.400;2023-03-23T00:04:10;97438.00;;;14.34
64394;BMP280;50712;49.506;10.400;2023-03-23T00:04:42;97440.75;;;14.34
64394;BMP280;50712;49.506;10.400;2023-03-23T00:05:12;97440.75;;;14.34
64394;BMP280;50712;49.506;10.400;2023-03-23T00:05:43;97434.78;;;14.35
64394;BMP280;50712;49.506;10.400;2023-03-23T00:06:20;97437.25;;;14.33
64394;BMP280;50712;49.506;10.400;2023-03-23T00:06:51;97431.78;;;14.33
64394;BMP280;50712;49.506;10.400;2023-03-23T00:07:22;97438.50;;;14.32
64394;BMP280;50712;49.506;10.400;2023-03-23T00:07:52;97437.72;;;14.32
64394;BMP280;50712;49.506;10.400;2023-03-23T00:08:25;97441.69;;;14.31
64394;BMP280;50712;49.506;10.400;2023-03-23T00:08:56;97438.25;;;14.30
64394;BMP280;50712;49.506;10.400;2023-03-23T00:09:29;97437.50;;;14.30
64394;BMP280;50712;49.506;10.400;2023-03-23T00:09:59;97437.50;;;14.30
64394;BMP280;50712;49.506;10.400;2023-03-23T00:10:34;97446.94;;;14.29
64394;BMP280;50712;49.506;10.400;2023-03-23T00:11:05;97441.44;;;14.29
64394;BMP280;50712;49.506;10.400;2023-03-23T00:11:35;97439.94;;;14.28
64394;BMP280;50712;49.506;10.400;2023-03-23T00:12:06;97439.94;;;14.28
64394;BMP280;50712;49.506;10.400;2023-03-23T00:12:37;97439.19;;;14.27
64394;BMP280;50712;49.506;10.400;2023-03-23T00:13:12;97436.94;;;14.26
64394;BMP280;50712;49.506;10.400;2023-03-23T00:13:43;97443.16;;;14.26
64394;BMP280;50712;49.506;10.400;2023-03-23T00:14:15;97447.41;;;14.27
64394;BMP280;50712;49.506;10.400;2023-03-23T00:14:46;97437.69;;;14.26
64394;BMP280;50712;49.506;10.400;2023-03-23T00:15:17;97437.41;;;14.24
64394;BMP280;50712;49.506;10.400;2023-03-23T00:15:48;97431.44;;;14.26
64394;BMP280;50712;49.506;10.400;2023-03-23T00:16:20;97437.69;;;14.26
64394;BMP280;50712;49.506;10.400;2023-03-23T00:17:00;97435.69;;;14.27
64394;BMP280;50712;49.506;10.400;2023-03-23T00:17:32;97436.94;;;14.26
64394;BMP280;50712;49.506;10.400;2023-03-23T00:18:03;97437.69;;;14.26
64394;BMP280;50712;49.506;10.400;2023-03-23T00:18:34;97438.91;;;14.25
64394;BMP280;50712;49.506;10.400;2023-03-23T00:19:06;97436.16;;;14.25
64394;BMP280;50712;49.506;10.400;2023-03-23T00:19:38;97434.94;;;14.26
64394;BMP280;50712;49.506;10.400;2023-03-23T00:20:15;97438.44;;;14.27
64394;BMP280;50712;49.506;10.400;2023-03-23T00:20:49;97439.94;;;14.28
64394;BMP280;50712;49.506;10.400;2023-03-23T00:21:22;97437.69;;;14.26
64394;BMP280;50712;49.506;10.400;2023-03-23T00:22:03;97438.44;;;14.27
64394;BMP280;50712;49.506;10.400;2023-03-23T00:22:34;97445.91;;;14.26
64394;BMP280;50712;49.506;10.400;2023-03-23T00:23:07;97443.91;;;14.27
64394;BMP280;50712;49.506;10.400;2023-03-23T00:23:38;97441.19;;;14.27
64394;BMP280;50712;49.506;10.400;2023-03-23T00:24:10;97439.19;;;14.27
64394;BMP280;50712;49.506;10.400;2023-03-23T00:24:43;97434.94;;;14.26
64394;BMP280;50712;49.506;10.400;2023-03-23T00:25:14;97435.69;;;14.27
64394;BMP280;50712;49.506;10.400;2023-03-23T00:25:46;97429.72;;;14.28
64394;BMP280;50712;49.506;10.400;2023-03-23T00:26:18;97434.44;;;14.28
64394;BMP280;50712;49.506;10.400;2023-03-23T00:26:49;97431.72;;;14.28
64394;BMP280;50712;49.506;10.400;2023-03-23T00:27:21;97433.69;;;14.27
64394;BMP280;50712;49.506;10.400;2023-03-23T00:27:52;97433.69;;;14.27
64394;BMP280;50712;49.506;10.400;2023-03-23T00:28:23;97434.94;;;14.26
64394;BMP280;50712;49.506;10.400;2023-03-23T00:28:56;97435.69;;;14.27
64394;BMP280;50712;49.506;10.400;2023-03-23T00:29:26;97433.69;;;14.27
64394;BMP280;50712;49.506;10.400;2023-03-23T00:29:57;97432.19;;;14.26
64394;BMP280;50712;49.506;10.400;2023-03-23T00:30:27;97432.19;;;14.26
64394;BMP280;50712;49.506;10.400;2023-03-23T00:30:58;97435.69;;;14.27
64394;BMP280;50712;49.506;10.400;2023-03-23T00:31:33;97427.47;;;14.27
64394;BMP280;50712;49.506;10.400;2023-03-23T00:32:06;97430.22;;;14.27
64394;BMP280;50712;49.506;10.400;2023-03-23T00:32:36;97420.47;;;14.26
64394;BMP280;50712;49.506;10.400;2023-03-23T00:33:07;97425.97;;;14.26
64394;BMP280;50712;49.506;10.400;2023-03-23T00:33:38;97428.69;;;14.26
64394;BMP280;50712;49.506;10.400;2023-03-23T00:34:10;97431.44;;;14.26
64394;BMP280;50712;49.506;10.400;2023-03-23T00:34:42;97431.44;;;14.26
64394;BMP280;50712;49.506;10.400;2023-03-23T00:35:16;97418.50;;;14.26
64394;BMP280;50712;49.506;10.400;2023-03-23T00:35:47;97426.72;;;14.26
64394;BMP280;50712;49.506;10.400;2023-03-23T00:36:18;97424.75;;;14.27
64394;BMP280;50712;49.506;10.400;2023-03-23T00:36:53;97417.25;;;14.27
64394;BMP280;50712;49.506;10.400;2023-03-23T00:37:27;97428.22;;;14.27
64394;BMP280;50712;49.506;10.400;2023-03-23T00:37:58;97422.72;;;14.27
64394;BMP280;50712;49.506;10.400;2023-03-23T00:38:30;97423.50;;;14.28
64394;BMP280;50712;49.506;10.400;2023-03-23T00:39:02;97411.03;;;14.27
64394;BMP280;50712;49.506;10.400;2023-03-23T00:39:33;97416.53;;;14.27
64394;BMP280;50712;49.506;10.400;2023-03-23T00:40:06;97418.00;;;14.28
64394;BMP280;50712;49.506;10.400;2023-03-23T00:40:41;97412.53;;;14.28
64394;BMP280;50712;49.506;10.400;2023-03-23T00:41:11;97420.75;;;14.28
64394;BMP280;50712;49.506;10.400;2023-03-23T00:41:42;97420.75;;;14.28
64394;BMP280;50712;49.506;10.400;2023-03-23T00:42:14;97420.00;;;14.27
64394;BMP280;50712;49.506;10.400;2023-03-23T00:42:46;97415.28;;;14.28
64394;BMP280;50712;49.506;10.400;2023-03-23T00:43:18;97422.28;;;14.29
64394;BMP280;50712;49.506;10.400;2023-03-23T00:43:49;97412.53;;;14.28
64394;BMP280;50712;49.506;10.400;2023-03-23T00:44:21;97417.56;;;14.29
64394;BMP280;50712;49.506;10.400;2023-03-23T00:44:53;97413.28;;;14.28
64394;BMP280;50712;49.506;10.400;2023-03-23T00:45:30;97416.78;;;14.29
64394;BMP280;50712;49.506;10.400;2023-03-23T00:46:02;97411.31;;;14.29
64394;BMP280;50712;49.506;10.400;2023-03-23T00:46:38;97416.78;;;14.29
64394;BMP280;50712;49.506;10.400;2023-03-23T00:47:15;97414.06;;;14.29
64394;BMP280;50712;49.506;10.400;2023-03-23T00:47:47;97412.53;;;14.28
64394;BMP280;50712;49.506;10.400;2023-03-23T00:48:23;97416.78;;;14.29
64394;BMP280;50712;49.506;10.400;2023-03-23T00:48:56;97414.06;;;14.29
64394;BMP280;50712;49.506;10.400;2023-03-23T00:49:27;97408.56;;;14.29
64394;BMP280;50712;49.506;10.400;2023-03-23T00:49:58;97414.06;;;14.29
64394;BMP280;50712;49.506;10.400;2023-03-23T00:50:28;97408.56;;;14.29
64394;BMP280;50712;49.506;10.400;2023-03-23T00:50:59;97405.06;;;14.28
64394;BMP280;50712;49.506;10.400;2023-03-23T00:51:31;97405.06;;;14.28
64394;BMP280;50712;49.506;10.400;2023-03-23T00:52:02;97407.81;;;14.28
64394;BMP280;50712;49.506;10.400;2023-03-23T00:52:34;97403.09;;;14.29
64394;BMP280;50712;49.506;10.400;2023-03-23T00:53:05;97401.56;;;14.28
64394;BMP280;50712;49.506;10.400;2023-03-23T00:53:35;97398.84;;;14.28
64394;BMP280;50712;49.506;10.400;2023-03-23T00:54:06;97402.81;;;14.27
64394;BMP280;50712;49.506;10.400;2023-03-23T00:54:37;97405.06;;;14.28
64394;BMP280;50712;49.506;10.400;2023-03-23T00:55:08;97404.31;;;14.28
64394;BMP280;50712;49.506;10.400;2023-03-23T00:55:40;97407.06;;;14.28
64394;BMP280;50712;49.506;10.400;2023-03-23T00:56:14;97409.03;;;14.27
64394;BMP280;50712;49.506;10.400;2023-03-23T00:56:45;97411.78;;;14.27
64394;BMP280;50712;49.506;10.400;2023-03-23T00:57:15;97400.09;;;14.27
64394;BMP280;50712;49.506;10.400;2023-03-23T00:57:47;97411.78;;;14.27
64394;BMP280;50712;49.506;10.400;2023-03-23T00:58:20;97410.28;;;14.26
64394;BMP280;50712;49.506;10.400;2023-03-23T00:58:50;97406.78;;;14.26
64394;BMP280;50712;49.506;10.400;2023-03-23T00:59:21;97406.78;;;14.26
64394;BMP280;50712;49.506;10.400;2023-03-23T00:59:52;97416.53;;;14.27
64394;BMP280;50712;49.506;10.400;2023-03-23T01:00:22;97410.28;;;14.26
64394;BMP280;50712;49.506;10.400;2023-03-23T01:00:53;97410.28;;;14.26
64394;BMP280;50712;49.506;10.400;2023-03-23T01:01:23;97408.31;;;14.27
64394;BMP280;50712;49.506;10.400;2023-03-23T01:01:54;97408.78;;;14.25
64394;BMP280;50712;49.506;10.400;2023-03-23T01:02:25;97404.81;;;14.26
64394;BMP280;50712;49.506;10.400;2023-03-23T01:02:55;97402.06;;;14.26
64394;BMP280;50712;49.506;10.400;2023-03-23T01:03:27;97406.03;;;14.25
64394;BMP280;50712;49.506;10.400;2023-03-23T01:03:58;97403.28;;;14.25
64394;BMP280;50712;49.506;10.400;2023-03-23T01:04:30;97398.56;;;14.26
64394;BMP280;50712;49.506;10.400;2023-03-23T01:05:01;97404.03;;;14.26
64394;BMP280;50712;49.506;10.400;2023-03-23T01:05:36;97401.78;;;14.24
64394;BMP280;50712;49.506;10.400;2023-03-23T01:06:08;97397.06;;;14.24
64394;BMP280;50712;49.506;10.400;2023-03-23T01:06:43;97398.31;;;14.24
64394;BMP280;50712;49.506;10.400;2023-03-23T01:07:14;97404.53;;;14.24
64394;BMP280;50712;49.506;10.400;2023-03-23T01:07:48;97400.31;;;14.23
64394;BMP280;50712;49.506;10.400;2023-03-23T01:08:18;97394.81;;;14.23
64394;BMP280;50712;49.506;10.400;2023-03-23T01:08:49;97398.78;;;14.22
64394;BMP280;50712;49.506;10.400;2023-03-23T01:09:20;97396.81;;;14.23
64394;BMP280;50712;49.506;10.400;2023-03-23T01:09:53;97396.06;;;14.22
64394;BMP280;50712;49.506;10.400;2023-03-23T01:10:23;97401.53;;;14.22
64394;BMP280;50712;49.506;10.400;2023-03-23T01:11:01;97401.53;;;14.22
64394;BMP280;50712;49.506;10.400;2023-03-23T01:11:36;97392.56;;;14.21
64394;BMP280;50712;49.506;10.400;2023-03-23T01:12:09;97398.03;;;14.21
64394;BMP280;50712;49.506;10.400;2023-03-23T01:12:39;97390.31;;;14.20
64394;BMP280;50712;49.506;10.400;2023-03-23T01:13:09;97395.28;;;14.21
64394;BMP280;50712;49.506;10.400;2023-03-23T01:13:41;97386.31;;;14.21
64394;BMP280;50712;49.506;10.400;2023-03-23T01:14:14;97393.81;;;14.20
64394;BMP280;50712;49.506;10.400;2023-03-23T01:14:46;97391.78;;;14.21
64394;BMP280;50712;49.506;10.400;2023-03-23T01:15:18;97389.81;;;14.21
64394;BMP280;50712;49.506;10.400;2023-03-23T01:15:49;97396.53;;;14.20
64394;BMP280;50712;49.506;10.400;2023-03-23T01:16:19;97397.28;;;14.21
64394;BMP280;50712;49.506;10.400;2023-03-23T01:16:50;97395.78;;;14.20
64394;BMP280;50712;49.506;10.400;2023-03-23T01:17:21;97395.78;;;14.20
64394;BMP280;50712;49.506;10.400;2023-03-23T01:17:51;97395.28;;;14.21
64394;BMP280;50712;49.506;10.400;2023-03-23T01:18:21;97395.28;;;14.21
64394;BMP280;50712;49.506;10.400;2023-03-23T01:18:52;97391.78;;;14.21
64394;BMP280;50712;49.506;10.400;2023-03-23T01:19:23;97391.78;;;14.21
64394;BMP280;50712;49.506;10.400;2023-03-23T01:19:53;97395.28;;;14.21
64394;BMP280;50712;49.506;10.400;2023-03-23T01:20:24;97392.56;;;14.21
64394;BMP280;50712;49.506;10.400;2023-03-23T01:20:57;97396.06;;;14.22
64394;BMP280;50712;49.506;10.400;2023-03-23T01:21:27;97405.03;;;14.23
64394;BMP280;50712;49.506;10.400;2023-03-23T01:21:58;97387.06;;;14.21
64394;BMP280;50712;49.506;10.400;2023-03-23T01:22:28;97389.81;;;14.21
64394;BMP280;50712;49.506;10.400;2023-03-23T01:22:58;97394.53;;;14.21
64394;BMP280;50712;49.506;10.400;2023-03-23T01:23:31;97393.81;;;14.20
64394;BMP280;50712;49.506;10.400;2023-03-23T01:24:03;97394.53;;;14.21
64394;BMP280;50712;49.506;10.400;2023-03-23T01:24:33;97392.56;;;14.21
64394;BMP280;50712;49.506;10.400;2023-03-23T01:25:04;97390.56;;;14.22
64394;BMP280;50712;49.506;10.400;2023-03-23T01:25:35;97394.53;;;14.21
64394;BMP280;50712;49.506;10.400;2023-03-23T01:26:07;97382.84;;;14.20
64394;BMP280;50712;49.506;10.400;2023-03-23T01:26:40;97391.06;;;14.20
64394;BMP280;50712;49.506;10.400;2023-03-23T01:27:10;97387.56;;;14.20
64394;BMP280;50712;49.506;10.400;2023-03-23T01:27:41;97380.09;;;14.20
64394;BMP280;50712;49.506;10.400;2023-03-23T01:28:11;97386.81;;;14.19
64394;BMP280;50712;49.506;10.400;2023-03-23T01:28:42;97382.09;;;14.20
64394;BMP280;50712;49.506;10.400;2023-03-23T01:29:13;97383.31;;;14.19
64394;BMP280;50712;49.506;10.400;2023-03-23T01:29:43;97377.81;;;14.19
64394;BMP280;50712;49.506;10.400;2023-03-23T01:30:14;97381.31;;;14.19
64394;BMP280;50712;49.506;10.400;2023-03-23T01:30:44;97383.31;;;14.19
64394;BMP280;50712;49.506;10.400;2023-03-23T01:31:19;97380.56;;;14.19
64394;BMP280;50712;49.506;10.400;2023-03-23T01:31:51;97378.59;;;14.19
64394;BMP280;50712;49.506;10.400;2023-03-23T01:32:21;97376.59;;;14.20
64394;BMP280;50712;49.506;10.400;2023-03-23T01:32:52;97374.63;;;14.20
64394;BMP280;50712;49.506;10.400;2023-03-23T01:33:22;97368.38;;;14.20
64394;BMP280;50712;49.506;10.400;2023-03-23T01:33:53;97379.34;;;14.20
64394;BMP280;50712;49.506;10.400;2023-03-23T01:34:25;97371.13;;;14.20
64394;BMP280;50712;49.506;10.400;2023-03-23T01:34:55;97368.38;;;14.20
64394;BMP280;50712;49.506;10.400;2023-03-23T01:35:26;97367.63;;;14.19
64394;BMP280;50712;49.506;10.400;2023-03-23T01:35:57;97366.88;;;14.19
64394;BMP280;50712;49.506;10.400;2023-03-23T01:36:29;97367.63;;;14.19
64394;BMP280;50712;49.506;10.400;2023-03-23T01:37:04;97360.16;;;14.20
64394;BMP280;50712;49.506;10.400;2023-03-23T01:37:34;97360.63;;;14.18
64394;BMP280;50712;49.506;10.400;2023-03-23T01:38:06;97353.16;;;14.19
64394;BMP280;50712;49.506;10.400;2023-03-23T01:38:37;97353.16;;;14.19
64394;BMP280;50712;49.506;10.400;2023-03-23T01:39:08;97351.19;;;14.19
64394;BMP280;50712;49.506;10.400;2023-03-23T01:39:38;97353.94;;;14.19
64394;BMP280;50712;49.506;10.400;2023-03-23T01:40:09;97356.66;;;14.19
64394;BMP280;50712;49.506;10.400;2023-03-23T01:40:40;97353.16;;;14.19
64394;BMP280;50712;49.506;10.400;2023-03-23T01:41:11;97362.16;;;14.19
64394;BMP280;50712;49.506;10.400;2023-03-23T01:41:44;97361.38;;;14.19
64394;BMP280;50712;49.506;10.400;2023-03-23T01:42:18;97353.16;;;14.19
64394;BMP280;50712;49.506;10.400;2023-03-23T01:42:51;97352.41;;;14.18
64394;BMP280;50712;49.506;10.400;2023-03-23T01:43:22;97353.16;;;14.19
64394;BMP280;50712;49.506;10.400;2023-03-23T01:43:53;97353.16;;;14.19
64394;BMP280;50712;49.506;10.400;2023-03-23T01:45:50;97346.19;;;14.18
64394;BMP280;50712;49.506;10.400;2023-03-23T01:46:20;97349.66;;;14.18
64394;BMP280;50712;49.506;10.400;2023-03-23T01:46:52;97346.94;;;14.18
64394;BMP280;50712;49.506;10.400;2023-03-23T01:47:24;97348.94;;;14.18
64394;BMP280;50712;49.506;10.400;2023-03-23T01:48:43;97344.19;;;14.18
64394;BMP280;50712;49.506;10.400;2023-03-23T01:49:19;97346.19;;;14.18
64394;BMP280;50712;49.506;10.400;2023-03-23T01:49:56;97336.50;;;14.17
64394;BMP280;50712;49.506;10.400;2023-03-23T01:50:28;97341.47;;;14.18
64394;BMP280;50712;49.506;10.400;2023-03-23T01:51:08;97342.22;;;14.19
64394;BMP280;50712;49.506;10.400;2023-03-23T01:51:43;97336.50;;;14.17
64394;BMP280;50712;49.506;10.400;2023-03-23T01:52:25;97338.72;;;14.18
64394;BMP280;50712;49.506;10.400;2023-03-23T01:53:05;97340.72;;;14.18
64394;BMP280;50712;49.506;10.400;2023-03-23T01:53:40;97342.72;;;14.17
64394;BMP280;50712;49.506;10.400;2023-03-23T01:54:16;97341.47;;;14.18
64394;BMP280;50712;49.506;10.400;2023-03-23T01:54:52;97343.47;;;14.18
64394;BMP280;50712;49.506;10.400;2023-03-23T01:55:25;97333.22;;;14.18
64394;BMP280;50712;49.506;10.400;2023-03-23T01:55:57;97339.47;;;14.19
64394;BMP280;50712;49.506;10.400;2023-03-23T01:56:32;97341.47;;;14.18
64394;BMP280;50712;49.506;10.400;2023-03-23T01:57:13;97338.72;;;14.18
64394;BMP280;50712;49.506;10.400;2023-03-23T01:57:47;97337.97;;;14.18
64394;BMP280;50712;49.506;10.400;2023-03-23T01:58:21;97335.97;;;14.18
64394;BMP280;50712;49.506;10.400;2023-03-23T01:58:57;97344.94;;;14.19
64394;BMP280;50712;49.506;10.400;2023-03-23T01:59:29;97336.72;;;14.19
64394;BMP280;50712;49.506;10.400;2023-03-23T02:00:21;97335.97;;;14.18
64394;BMP280;50712;49.506;10.400;2023-03-23T02:00:57;97342.22;;;14.19
64394;BMP280;50712;49.506;10.400;2023-03-23T02:01:31;97334.75;;;14.19
64394;BMP280;50712;49.506;10.400;2023-03-23T02:02:06;97339.47;;;14.19
64394;BMP280;50712;49.506;10.400;2023-03-23T02:02:36;97334.75;;;14.19
64394;BMP280;50712;49.506;10.400;2023-03-23T02:03:09;97335.97;;;14.18
64394;BMP280;50712;49.506;10.400;2023-03-23T02:03:44;97337.50;;;14.19
64394;BMP280;50712;49.506;10.400;2023-03-23T02:04:16;97329.28;;;14.19
64394;BMP280;50712;49.506;10.400;2023-03-23T02:04:47;97332.78;;;14.20
64394;BMP280;50712;49.506;10.400;2023-03-23T02:05:28;97328.06;;;14.20
64394;BMP280;50712;49.506;10.400;2023-03-23T02:06:07;97330.78;;;14.20
64394;BMP280;50712;49.506;10.400;2023-03-23T02:06:47;97327.28;;;14.20
64394;BMP280;50712;49.506;10.400;2023-03-23T02:07:22;97327.28;;;14.20
64394;BMP280;50712;49.506;10.400;2023-03-23T02:07:56;97329.53;;;14.21
64394;BMP280;50712;49.506;10.400;2023-03-23T02:08:35;97326.78;;;14.21
64394;BMP280;50712;49.506;10.400;2023-03-23T02:09:07;97331.53;;;14.21
64394;BMP280;50712;49.506;10.400;2023-03-23T02:09:38;97329.53;;;14.21
64394;BMP280;50712;49.506;10.400;2023-03-23T02:10:09;97326.78;;;14.21
64394;BMP280;50712;49.506;10.400;2023-03-23T02:10:40;97326.78;;;14.21
64394;BMP280;50712;49.506;10.400;2023-03-23T02:11:15;97326.78;;;14.21
64394;BMP280;50712;49.506;10.400;2023-03-23T02:11:47;97320.09;;;14.23
64394;BMP280;50712;49.506;10.400;2023-03-23T02:12:20;97328.31;;;14.23
64394;BMP280;50712;49.506;10.400;2023-03-23T02:12:53;97323.28;;;14.21
64394;BMP280;50712;49.506;10.400;2023-03-23T02:13:23;97322.06;;;14.22
64394;BMP280;50712;49.506;10.400;2023-03-23T02:13:55;97327.09;;;14.24
64394;BMP280;50712;49.506;10.400;2023-03-23T02:14:27;97314.63;;;14.23
64394;BMP280;50712;49.506;10.400;2023-03-23T02:14:59;97318.13;;;14.23
64394;BMP280;50712;49.506;10.400;2023-03-23T02:15:35;97319.59;;;14.24
64394;BMP280;50712;49.506;10.400;2023-03-23T02:17:51;97313.41;;;14.24
64394;BMP280;50712;49.506;10.400;2023-03-23T02:18:37;97316.13;;;14.24
64394;BMP280;50712;49.506;10.400;2023-03-23T02:21:28;97316.13;;;14.24
64394;BMP280;50712;49.506;10.400;2023-03-23T02:23:54;97314.13;;;14.24
64394;BMP280;50712;49.506;10.400;2023-03-23T02:24:33;97325.34;;;14.26
64394;BMP280;50712;49.506;10.400;2023-03-23T02:26:20;97318.63;;;14.27
64394;BMP280;50712;49.506;10.400;2023-03-23T02:27:05;97313.88;;;14.28
64394;BMP280;50712;49.506;10.400;2023-03-23T02:27:52;97317.38;;;14.28
64394;BMP280;50712;49.506;10.400;2023-03-23T02:29:45;97312.91;;;14.31
64394;BMP280;50712;49.506;10.400;2023-03-23T02:31:56;97315.94;;;14.33
64394;BMP280;50712;49.506;10.400;2023-03-23T02:35:08;97312.47;;;14.38
64394;BMP280;50712;49.506;10.400;2023-03-23T02:35:45;97314.44;;;14.37
64394;BMP280;50712;49.506;10.400;2023-03-23T02:37:21;97315.22;;;14.38
64394;BMP280;50712;49.506;10.400;2023-03-23T02:37:59;97312.75;;;14.40
64394;BMP280;50712;49.506;10.400;2023-03-23T02:38:38;97313.50;;;14.40
64394;BMP280;50712;49.506;10.400;2023-03-23T02:39:30;97315.75;;;14.42
64394;BMP280;50712;49.506;10.400;2023-03-23T02:40:08;97311.00;;;14.42
64394;BMP280;50712;49.506;10.400;2023-03-23T02:40:53;97300.81;;;14.43
64394;BMP280;50712;49.506;10.400;2023-03-23T02:41:28;97313.25;;;14.44
64394;BMP280;50712;49.506;10.400;2023-03-23T02:42:02;97302.28;;;14.44
64394;BMP280;50712;49.506;10.400;2023-03-23T02:42:36;97307.31;;;14.45
64394;BMP280;50712;49.506;10.400;2023-03-23T02:43:12;97301.81;;;14.45
64394;BMP280;50712;49.506;10.400;2023-03-23T02:43:45;97307.31;;;14.45
64394;BMP280;50712;49.506;10.400;2023-03-23T02:44:17;97298.31;;;14.45
64394;BMP280;50712;49.506;10.400;2023-03-23T02:44:48;97300.56;;;14.46
64394;BMP280;50712;49.506;10.400;2023-03-23T02:45:22;97297.09;;;14.46
64394;BMP280;50712;49.506;10.400;2023-03-23T02:45:57;97299.34;;;14.47
64394;BMP280;50712;49.506;10.400;2023-03-23T02:46:30;97305.59;;;14.48
64394;BMP280;50712;49.506;10.400;2023-03-23T02:47:00;97307.06;;;14.49
64394;BMP280;50712;49.506;10.400;2023-03-23T02:47:35;97302.34;;;14.49
64394;BMP280;50712;49.506;10.400;2023-03-23T02:48:08;97307.06;;;14.49
64394;BMP280;50712;49.506;10.400;2023-03-23T02:48:41;97302.34;;;14.49
64394;BMP280;50712;49.506;10.400;2023-03-23T02:49:15;97292.88;;;14.50
64394;BMP280;50712;49.506;10.400;2023-03-23T02:49:47;97299.13;;;14.51
64394;BMP280;50712;49.506;10.400;2023-03-23T02:50:24;97301.38;;;14.52
64394;BMP280;50712;49.506;10.400;2023-03-23T02:50:57;97298.66;;;14.52
64394;BMP280;50712;49.506;10.400;2023-03-23T02:51:30;97304.13;;;14.52
64394;BMP280;50712;49.506;10.400;2023-03-23T02:52:04;97300.13;;;14.53
64394;BMP280;50712;49.506;10.400;2023-03-23T02:52:43;97292.63;;;14.54
64394;BMP280;50712;49.506;10.400;2023-03-23T02:53:18;97289.91;;;14.54
64394;BMP280;50712;49.506;10.400;2023-03-23T02:53:53;97295.38;;;14.54
64394;BMP280;50712;49.506;10.400;2023-03-23T02:54:26;97296.13;;;14.54
64394;BMP280;50712;49.506;10.400;2023-03-23T02:54:59;97294.16;;;14.55
64394;BMP280;50712;49.506;10.400;2023-03-23T02:55:31;97296.91;;;14.55
64394;BMP280;50712;49.506;10.400;2023-03-23T02:56:07;97290.16;;;14.56
64394;BMP280;50712;49.506;10.400;2023-03-23T02:56:40;97292.16;;;14.55
64394;BMP280;50712;49.506;10.400;2023-03-23T02:57:20;97296.41;;;14.56
64394;BMP280;50712;49.506;10.400;2023-03-23T02:57:54;97297.91;;;14.57
64394;BMP280;50712;49.506;10.400;2023-03-23T02:58:24;97291.66;;;14.57
64394;BMP280;50712;49.506;10.400;2023-03-23T02:58:55;97293.19;;;14.58
64394;BMP280;50712;49.506;10.400;2023-03-23T02:59:26;97284.19;;;14.57
64394;BMP280;50712;49.506;10.400;2023-03-23T02:59:57;97290.44;;;14.58
64394;BMP280;50712;49.506;10.400;2023-03-23T03:00:28;97293.94;;;14.58
64394;BMP280;50712;49.506;10.400;2023-03-23T03:00:58;97292.69;;;14.59
64394;BMP280;50712;49.506;10.400;2023-03-23T03:02:58;97289.22;;;14.59
64394;BMP280;50712;49.506;10.400;2023-03-23T03:03:29;97286.47;;;14.59
64394;BMP280;50712;49.506;10.400;2023-03-23T03:04:01;97286.47;;;14.59
64394;BMP280;50712;49.506;10.400;2023-03-23T03:04:38;97296.91;;;14.60
64394;BMP280;50712;49.506;10.400;2023-03-23T03:05:16;97283.22;;;14.60
64394;BMP280;50712;49.506;10.400;2023-03-23T03:06:09;97286.72;;;14.61
64394;BMP280;50712;49.506;10.400;2023-03-23T03:07:01;97287.47;;;14.61
64394;BMP280;50712;49.506;10.400;2023-03-23T03:07:47;97279.25;;;14.61
64394;BMP280;50712;49.506;10.400;2023-03-23T03:08:37;97280.00;;;14.62
64394;BMP280;50712;49.506;10.400;2023-03-23T03:10:05;97281.50;;;14.63
64394;BMP280;50712;49.506;10.400;2023-03-23T03:11:23;97270.53;;;14.63
64394;BMP280;50712;49.506;10.400;2023-03-23T03:11:57;97275.25;;;14.62
64394;BMP280;50712;49.506;10.400;2023-03-23T03:12:36;97273.25;;;14.63
64394;BMP280;50712;49.506;10.400;2023-03-23T03:13:23;97278.75;;;14.63
64394;BMP280;50712;49.506;10.400;2023-03-23T03:15:21;97280.25;;;14.64
64394;BMP280;50712;49.506;10.400;2023-03-23T03:17:27;97272.78;;;14.64
64394;BMP280;50712;49.506;10.400;2023-03-23T03:19:30;97274.28;;;14.65
64394;BMP280;50712;49.506;10.400;2023-03-23T03:20:05;97275.75;;;14.66
64394;BMP280;50712;49.506;10.400;2023-03-23T03:20:43;97272.28;;;14.66
64394;BMP280;50712;49.506;10.400;2023-03-23T03:21:18;97277.75;;;14.66
64394;BMP280;50712;49.506;10.400;2023-03-23T03:21:59;97285.97;;;14.66
64394;BMP280;50712;49.506;10.400;2023-03-23T03:22:43;97273.03;;;14.66
64394;BMP280;50712;49.506;10.400;2023-03-23T03:23:14;97276.53;;;14.67
64394;BMP280;50712;49.506;10.400;2023-03-23T03:23:48;97279.25;;;14.67
64394;BMP280;50712;49.506;10.400;2023-03-23T03:24:21;97269.06;;;14.67
64394;BMP280;50712;49.506;10.400;2023-03-23T03:24:56;97276.53;;;14.67
64394;BMP280;50712;49.506;10.400;2023-03-23T03:25:29;97277.28;;;14.67
64394;BMP280;50712;49.506;10.400;2023-03-23T03:26:02;97277.28;;;14.67
64394;BMP280;50712;49.506;10.400;2023-03-23T03:26:47;97267.06;;;14.68
64394;BMP280;50712;49.506;10.400;2023-03-23T03:27:42;97274.03;;;14.69
64394;BMP280;50712;49.506;10.400;2023-03-23T03:28:20;97259.56;;;14.68
64394;BMP280;50712;49.506;10.400;2023-03-23T03:28:53;97268.56;;;14.69
64394;BMP280;50712;49.506;10.400;2023-03-23T03:29:26;97269.31;;;14.69
64394;BMP280;50712;49.506;10.400;2023-03-23T03:30:04;97264.59;;;14.70
64394;BMP280;50712;49.506;10.400;2023-03-23T03:30:38;97261.84;;;14.70
64394;BMP280;50712;49.506;10.400;2023-03-23T03:31:09;97264.59;;;14.70
64394;BMP280;50712;49.506;10.400;2023-03-23T03:31:41;97268.84;;;14.71
64394;BMP280;50712;49.506;10.400;2023-03-23T03:32:17;97262.59;;;14.70
64394;BMP280;50712;49.506;10.400;2023-03-23T03:32:52;97266.09;;;14.71
64394;BMP280;50712;49.506;10.400;2023-03-23T03:33:26;97260.63;;;14.71